Address 0x24354e28b1bd4fdecbac415329cac806aa54bd10

 
Txn Hash
Block
From
To
Value [Txn Fee]
0x342a6f39dc8e1ef66efb1370ca31f89a94d85bead375e19a68171d9225f6de7279679552021-06-03 7:06:0811 days 17 hrs ago0x24354e28b1bd4fdecbac415329cac806aa54bd10OUT 0x23026068d258d386b0899896358269879e4d4fe70 BNB0.00304736
0x025f52aceb6c4227d5369b6c2fb340969e115b3943d14b2651bff4307294124e79679452021-06-03 7:05:3811 days 17 hrs ago0x24354e28b1bd4fdecbac415329cac806aa54bd10OUT Ethereum: ETH Token0 BNB0.00022071
0x60047c79a2bb27014a30f972432819948f29d5998df48ac54bc3bae75674bfed79679342021-06-03 7:05:0511 days 17 hrs ago0x24354e28b1bd4fdecbac415329cac806aa54bd10OUT Venus: vETH Token0 BNB0.00259394
0x042f8acf7c7d1eb6f437c3b7ad93fa568751e8abfb5e25b79f40646d376807d776725742021-05-23 23:49:4522 days 1 hr ago0x24354e28b1bd4fdecbac415329cac806aa54bd10OUT Venus: Distribution0 BNB0.000378655
0xa2ed0ad0e75deda732fc968b63e2a743674c438e2d4f1a3864df36c854ac327976725572021-05-23 23:48:5422 days 1 hr ago0x24354e28b1bd4fdecbac415329cac806aa54bd10OUT Venus: vETH Token0 BNB0.00096741
0xdaa3c19fb489abba1b6ea7a8b1f8ddc80281e87686d6b46b5a6fd908639fccb076725492021-05-23 23:48:3022 days 1 hr ago0x24354e28b1bd4fdecbac415329cac806aa54bd10OUT Ethereum: ETH Token0 BNB0.00022203
0x7e625b697456b9e6e30f1abc9be10e70dd9f50e1b6834911e9fbe986ab8dd36576725322021-05-23 23:47:3922 days 1 hr ago0x24354e28b1bd4fdecbac415329cac806aa54bd10OUT Venus: vBTC Token0 BNB0.00083854
0x8708d8785eea0793a9e68e2d811d4f02e054a5e33e7ba6821669cce214293fcc76595882021-05-23 12:57:5122 days 12 hrs ago0x24354e28b1bd4fdecbac415329cac806aa54bd10OUT 0xf84e3809971798bd372aecdc03ae977759a619ab0 BNB0.002234382
0xc7e2515b1e7014421d3c1ae55978dea9a2c9a874d6d479f029b840e4815d696a75195392021-05-18 15:28:1427 days 9 hrs ago0x24354e28b1bd4fdecbac415329cac806aa54bd10OUT 0x1735783c26731789933a8cd308253a5f4ffa08026.2 BNB0.002786205
0xb050b89ec82bdf55056ce6defd966cceaa1c3cde28c90f12fbf8922ee09b2feb75195052021-05-18 15:26:3227 days 9 hrs ago0x24354e28b1bd4fdecbac415329cac806aa54bd10OUT PancakeSwap: Router v20 BNB0.00093409
0xea1a204a1910f23d16ef3c0fdb54397b67ed72baf517a319ec6d3ffe46ec901975194692021-05-18 15:24:4427 days 9 hrs ago0x24354e28b1bd4fdecbac415329cac806aa54bd10OUT Venus: vUSDC Token0 BNB0.0025431
0xf150b8aed246a9e3dcea9710a9b748594582df41d040bb08c22ed6886c2f9ea375194322021-05-18 15:22:5327 days 9 hrs ago0x24354e28b1bd4fdecbac415329cac806aa54bd10OUT Venus: Distribution0 BNB0.000378655
0x794993c083121e6c64314b62ddd1bd207eb9507f9511f2b7b66eb0cb4a57804975194242021-05-18 15:22:2927 days 9 hrs ago0x24354e28b1bd4fdecbac415329cac806aa54bd10OUT Venus: vBTC Token0 BNB0.00096747
0x670ce220fe5b21d4a8bf684fe274ed655a65c7053afa6c9ef29ea00fb90c0d5375194122021-05-18 15:21:5327 days 9 hrs ago0x24354e28b1bd4fdecbac415329cac806aa54bd10OUT Binance: BTCB Token0 BNB0.00022203
0x3f1796aa932e88864eaebd51fa2724d1b7cd9c654159d025fb4b7f570db2dc4475193762021-05-18 15:20:0527 days 9 hrs ago0x24354e28b1bd4fdecbac415329cac806aa54bd10OUT 0x549d2e2b4fa19179ca5020a981600571c2954f6a0 BNB0.00438836
0x212629d9a61774212a5e7219788848c762096882eed476bf7c42eaf6d014754875193682021-05-18 15:19:4127 days 9 hrs ago0x24354e28b1bd4fdecbac415329cac806aa54bd10OUT PancakeSwap: Router v20 BNB0.00055311
0x31bb2670852b88fda885fb65d62041d97a8bcd18e3b7d17e0fe8d76c2554e25375193452021-05-18 15:18:3227 days 9 hrs ago0x24354e28b1bd4fdecbac415329cac806aa54bd10OUT Venus: vBUSD Token0 BNB0.001960285
0x4bee311222bea22ed6868eda20a98aa25aa8a332ee41aa751369a5454e7daa1275125852021-05-18 9:33:4327 days 15 hrs ago0x24354e28b1bd4fdecbac415329cac806aa54bd10OUT Venus: Distribution0 BNB0.000378655
0x1bd715e3997187cdbe895fb8d93e6bce2ce25824f00aaa134e4433464198e6e475125742021-05-18 9:33:1027 days 15 hrs ago0x24354e28b1bd4fdecbac415329cac806aa54bd10OUT Venus: vXVS Token0 BNB0.00088233
0xf4e78f17dbfbaeabc9740c1cbbfb9e944156558fb8e30e93307d8d90228ac7c375123442021-05-18 9:21:4027 days 15 hrs ago0x24354e28b1bd4fdecbac415329cac806aa54bd10OUT Venus: vBUSD Token0 BNB0.000778405
0x6a2c501e060a2652830f070b3fd161899243c3d253f4072a9fe42c271ba6265c73198722021-05-11 11:50:5434 days 13 hrs ago0x24354e28b1bd4fdecbac415329cac806aa54bd10OUT 0x184d7b54685bb3df8dcf68233a6eb1d17d4f846e0 BNB0.001202432
0xf0dcd1c0c53b5cd1854b0173eb58ae22547520e3fc90e81a6b2d75c92341dbf473198462021-05-11 11:49:3634 days 13 hrs ago0x24354e28b1bd4fdecbac415329cac806aa54bd10OUT PancakeSwap: Router v20 BNB0.0019833737
0xea9c455162416a149c27a4024fe5bdc8be541d6dbaa3a56228552a361202824e73170562021-05-11 9:04:4134 days 15 hrs ago0x24354e28b1bd4fdecbac415329cac806aa54bd10OUT Growing Fi: GROW Token0 BNB0.0003406403
0x339a412104a661c7e869155ec805bd9ee2aad3eff1a3985b5de86629360ba6a073167772021-05-11 8:47:4534 days 16 hrs ago0x24354e28b1bd4fdecbac415329cac806aa54bd10OUT 0x549d2e2b4fa19179ca5020a981600571c2954f6a0 BNB0.000914228
0x016056e0c187ad3800204e5791cdd5ac8482167d649d7aec09ccb6707ae3fea673167772021-05-11 8:47:4534 days 16 hrs ago0x24354e28b1bd4fdecbac415329cac806aa54bd10OUT 0x549d2e2b4fa19179ca5020a981600571c2954f6a0 BNB0.00179088
[ Download CSV Export 
Latest 3 internal transactions
Parent Txn Hash Block From To Value
0x8708d8785eea0793a9e68e2d811d4f02e054a5e33e7ba6821669cce214293fcc76595882021-05-23 12:57:5122 days 12 hrs ago 0xf84e3809971798bd372aecdc03ae977759a619ab0x24354e28b1bd4fdecbac415329cac806aa54bd100.00001081527258876 BNB
0xb050b89ec82bdf55056ce6defd966cceaa1c3cde28c90f12fbf8922ee09b2feb75195052021-05-18 15:26:3227 days 9 hrs ago PancakeSwap: Router v20x24354e28b1bd4fdecbac415329cac806aa54bd106.47052365967436495 BNB
0x212629d9a61774212a5e7219788848c762096882eed476bf7c42eaf6d014754875193682021-05-18 15:19:4127 days 9 hrs ago PancakeSwap: Router v20x24354e28b1bd4fdecbac415329cac806aa54bd100.047882301905216929 BNB
[ Download CSV Export 
Loading

Contract Name:
0 BNB

Compiler Version
0

Optimization Enabled:
0 BNB

Other Settings:
-NA-
Block Transaction Gas Used Reward
Age Block Fee Address BC Fee Address Voting Power Jailed Incoming
Block Uncle Number Difficulty Gas Used Reward
Loading
Loading
Make sure to use the "Vote Down" button for any spammy posts, and the "Vote Up" for interesting conversations.